createdAt,value
2023-01-08T00:02:00.170Z,100495.03
2023-01-08T00:07:05.623Z,100471.75
2023-01-08T00:12:11.263Z,100464.84
2023-01-08T00:17:16.802Z,100459.59
2023-01-08T00:22:22.265Z,100472.99
2023-01-08T00:27:27.795Z,100461.38
2023-01-08T00:32:33.402Z,100466.72
2023-01-08T00:37:38.815Z,100463.13
2023-01-08T00:42:44.327Z,100452.61
2023-01-08T00:47:49.784Z,100446.16
2023-01-08T00:52:55.526Z,100445.00
2023-01-08T00:58:00.900Z,100444.97
2023-01-08T01:03:06.652Z,100452.19
2023-01-08T01:08:12.256Z,100440.21
2023-01-08T01:13:17.642Z,100434.63
2023-01-08T01:18:24.094Z,100425.37
2023-01-08T01:23:29.611Z,100423.81
2023-01-08T01:28:35.069Z,100417.06
2023-01-08T01:33:41.619Z,100412.25
2023-01-08T01:38:48.965Z,100396.89
2023-01-08T01:43:56.003Z,100394.78
2023-01-08T01:49:04.596Z,100397.19
2023-01-08T01:54:12.798Z,100392.88
2023-01-08T01:59:18.476Z,100383.94
2023-01-08T02:04:24.095Z,100398.44
2023-01-08T02:09:41.413Z,100380.63
2023-01-08T02:15:14.377Z,100361.38
2023-01-08T02:20:25.805Z,100351.45
2023-01-08T02:25:39.908Z,100353.91
2023-01-08T02:30:46.966Z,100350.28
2023-01-08T02:35:58.627Z,100349.47
2023-01-08T02:41:07.163Z,100332.69
2023-01-08T02:46:18.340Z,100311.08
2023-01-08T02:51:27.184Z,100308.08
2023-01-08T02:56:38.145Z,100312.17
2023-01-08T03:01:45.943Z,100305.11
2023-01-08T03:06:52.565Z,100307.86
2023-01-08T03:12:03.546Z,100292.98
2023-01-08T03:17:14.578Z,100289.89
2023-01-08T03:22:21.158Z,100283.77
2023-01-08T03:27:29.660Z,100280.97
2023-01-08T03:32:37.438Z,100258.69
2023-01-08T03:37:46.319Z,100259.81
2023-01-08T03:42:52.002Z,100257.09
2023-01-08T03:47:58.936Z,100241.83
2023-01-08T03:53:04.524Z,100245.77
2023-01-08T03:58:10.147Z,100246.22
2023-01-08T04:03:15.595Z,100247.41
2023-01-08T04:08:20.978Z,100247.97
2023-01-08T04:13:26.717Z,100238.91
2023-01-08T04:18:32.114Z,100232.22
2023-01-08T04:23:37.565Z,100230.83
2023-01-08T04:28:43.100Z,100226.14
2023-01-08T04:33:48.604Z,100238.22
2023-01-08T04:38:54.116Z,100231.42
2023-01-08T04:43:59.628Z,100223.91
2023-01-08T04:49:05.246Z,100217.30
2023-01-08T04:54:10.628Z,100224.75
2023-01-08T04:59:16.251Z,100214.04
2023-01-08T05:04:21.716Z,100212.36
2023-01-08T05:09:27.168Z,100208.22
2023-01-08T05:14:32.631Z,100209.98
2023-01-08T05:19:38.495Z,100210.92
2023-01-08T05:24:44.043Z,100203.72
2023-01-08T05:29:49.409Z,100204.73
2023-01-08T05:34:54.799Z,100210.64
2023-01-08T05:40:00.265Z,100203.44
2023-01-08T05:45:07.625Z,100195.55
2023-01-08T05:50:13.128Z,100197.97
2023-01-08T05:55:19.372Z,100195.00
2023-01-08T06:00:26.516Z,100186.78
2023-01-08T06:05:33.535Z,100169.73
2023-01-08T06:10:42.033Z,100159.02
2023-01-08T06:15:47.446Z,100154.56
2023-01-08T06:20:52.901Z,100144.72
2023-01-08T06:26:00.110Z,100148.23
2023-01-08T06:31:06.270Z,100143.42
2023-01-08T06:36:12.562Z,100142.88
2023-01-08T06:41:18.009Z,100139.47
2023-01-08T06:46:23.484Z,100132.23
2023-01-08T06:51:29.052Z,100125.59
2023-01-08T06:56:48.881Z,100130.25
2023-01-08T07:01:41.954Z,100118.52
2023-01-08T07:06:48.105Z,100120.70
2023-01-08T07:11:53.658Z,100127.20
2023-01-08T07:16:59.204Z,100127.36
2023-01-08T07:22:04.706Z,100122.98
2023-01-08T07:27:10.260Z,100125.16
2023-01-08T07:32:15.739Z,100131.19
2023-01-08T07:37:21.185Z,100117.78
2023-01-08T07:42:26.644Z,100116.09
2023-01-08T07:47:32.261Z,100113.44
2023-01-08T07:52:37.723Z,100109.30
2023-01-08T07:57:43.112Z,100113.59
2023-01-08T08:02:48.891Z,100120.55
2023-01-08T08:07:54.430Z,100118.36
2023-01-08T08:13:00.040Z,100108.27
2023-01-08T08:18:06.438Z,100116.64
2023-01-08T08:23:14.378Z,100111.24
2023-01-08T08:28:20.168Z,100116.80
2023-01-08T08:33:25.629Z,100116.95
2023-01-08T08:38:31.167Z,100109.67
2023-01-08T08:43:36.803Z,100102.13
2023-01-08T08:48:42.193Z,100095.47
2023-01-08T08:53:47.587Z,100094.19
2023-01-08T08:58:53.118Z,100089.03
2023-01-08T09:03:58.859Z,100082.94
2023-01-08T09:09:04.643Z,100083.19
2023-01-08T09:14:10.859Z,100084.52
2023-01-08T09:19:16.315Z,100088.42
2023-01-08T09:24:21.782Z,100088.26
2023-01-08T09:29:27.216Z,100078.95
2023-01-08T09:34:33.075Z,100078.53
2023-01-08T09:39:42.357Z,100078.80
2023-01-08T09:44:49.411Z,100070.25
2023-01-08T09:49:57.859Z,100073.56
2023-01-08T09:55:03.491Z,100069.39
2023-01-08T10:00:17.735Z,100073.75
2023-01-08T10:05:23.437Z,100063.89
2023-01-08T10:10:31.639Z,100065.52
2023-01-08T10:15:37.229Z,100059.55
2023-01-08T10:20:42.709Z,100041.34
2023-01-08T10:25:57.167Z,100050.20
2023-01-08T10:31:11.618Z,100024.11
2023-01-08T10:36:20.464Z,100028.69
2023-01-08T10:41:27.497Z,100008.18
2023-01-08T10:46:44.720Z,99997.92
2023-01-08T10:51:53.291Z,99996.03
2023-01-08T10:57:00.644Z,100003.45
2023-01-08T11:02:09.295Z,100011.91
2023-01-08T11:07:23.946Z,100014.29
2023-01-08T11:12:35.867Z,100021.34
2023-01-08T11:17:41.460Z,100010.30
2023-01-08T11:22:46.849Z,99990.98
2023-01-08T11:27:54.028Z,99970.61
2023-01-08T11:33:16.330Z,99946.83
2023-01-08T11:38:21.843Z,99960.89
2023-01-08T11:43:48.264Z,99977.19
2023-01-08T11:48:59.395Z,99981.38
2023-01-08T11:54:24.417Z,99982.60
2023-01-08T12:00:07.096Z,99975.75
2023-01-08T12:05:27.219Z,99977.08
2023-01-08T12:10:52.488Z,99961.66
2023-01-08T12:16:26.832Z,99956.63
2023-01-08T12:21:44.165Z,99944.26
2023-01-08T12:27:01.301Z,99937.67
2023-01-08T12:32:12.557Z,99936.83
2023-01-08T12:37:24.094Z,99926.84
2023-01-08T12:42:32.105Z,99915.80
2023-01-08T12:47:39.502Z,99912.75
2023-01-08T12:52:53.913Z,99903.87
2023-01-08T12:58:20.442Z,99898.25
2023-01-08T13:03:29.488Z,99883.06
2023-01-08T13:08:40.080Z,99879.82
2023-01-08T13:13:46.206Z,99878.59
2023-01-08T13:18:57.427Z,99881.66
2023-01-08T13:24:06.155Z,99871.77
2023-01-08T13:29:39.036Z,99873.44
2023-01-08T13:34:44.555Z,99815.91
2023-01-08T13:39:50.266Z,99866.42
2023-01-08T13:45:02.173Z,99869.30
2023-01-08T13:50:16.672Z,99856.99
2023-01-08T13:55:30.767Z,99860.33
2023-01-08T14:00:48.382Z,99851.83
2023-01-08T14:06:09.343Z,99841.83
2023-01-08T14:11:14.862Z,99848.13
2023-01-08T14:16:22.028Z,99846.80
2023-01-08T14:21:27.802Z,99854.70
2023-01-08T14:26:36.257Z,99855.38
2023-01-08T14:31:56.490Z,99847.78
2023-01-08T14:37:02.175Z,99840.15
2023-01-08T14:42:44.575Z,99843.88
2023-01-08T14:47:52.810Z,99841.19
2023-01-08T14:53:01.247Z,99836.91
2023-01-08T14:58:09.944Z,99839.25
2023-01-08T15:03:34.669Z,99833.94
2023-01-08T15:08:45.507Z,99824.80
2023-01-08T15:13:53.078Z,99824.98
2023-01-08T15:19:04.445Z,99823.53
2023-01-08T15:24:11.907Z,99812.00
2023-01-08T15:29:26.072Z,99815.45
2023-01-08T15:34:31.480Z,99817.20
2023-01-08T15:39:37.053Z,99807.84
2023-01-08T15:44:42.537Z,99818.31
2023-01-08T15:49:47.879Z,99807.56
2023-01-08T15:54:53.411Z,99813.17
2023-01-08T15:59:59.099Z,99817.08
2023-01-08T16:05:04.884Z,99817.66
2023-01-08T16:10:11.287Z,99817.45
2023-01-08T16:15:17.658Z,99815.84
2023-01-08T16:20:23.261Z,99811.94
2023-01-08T16:25:28.770Z,99812.34
2023-01-08T16:30:34.570Z,99811.77
2023-01-08T16:35:40.948Z,99816.88
2023-01-08T16:40:46.438Z,99812.22
2023-01-08T16:45:52.249Z,99810.80
2023-01-08T16:50:59.285Z,99805.76
2023-01-08T16:56:05.944Z,99799.42
2023-01-08T17:01:12.887Z,99800.38
2023-01-08T17:06:18.460Z,99808.58
2023-01-08T17:11:24.281Z,99808.40
2023-01-08T17:16:30.566Z,99814.97
2023-01-08T17:21:36.560Z,99809.65
2023-01-08T17:26:42.066Z,99809.27
2023-01-08T17:31:47.514Z,99809.31
2023-01-08T17:36:53.053Z,99797.99
2023-01-08T17:42:09.463Z,99794.09
2023-01-08T17:47:14.895Z,99787.63
2023-01-08T17:52:21.696Z,99792.88
2023-01-08T17:57:28.885Z,99793.34
2023-01-08T18:02:34.524Z,99788.52
2023-01-08T18:07:40.014Z,99784.47
2023-01-08T18:12:45.547Z,99788.77
2023-01-08T18:17:52.757Z,99779.63
2023-01-08T18:22:58.508Z,99778.61
2023-01-08T18:28:03.971Z,99773.47
2023-01-08T18:33:10.194Z,99770.75
2023-01-08T18:38:16.022Z,99763.16
2023-01-08T18:43:21.413Z,99766.98
2023-01-08T18:48:27.141Z,99757.13
2023-01-08T18:53:34.749Z,99756.47
2023-01-08T18:58:41.189Z,99754.01
2023-01-08T19:03:48.861Z,99749.07
2023-01-08T19:08:56.951Z,99756.59
2023-01-08T19:14:01.789Z,99763.30
2023-01-08T19:19:07.782Z,99738.38
2023-01-08T19:24:14.287Z,99735.91
2023-01-08T19:29:20.894Z,99736.86
2023-01-08T19:34:26.466Z,99734.67
2023-01-08T19:39:32.158Z,99748.48
2023-01-08T19:44:37.784Z,99743.63
2023-01-08T19:49:46.784Z,99742.72
2023-01-08T19:54:52.207Z,99743.20
2023-01-08T19:59:57.656Z,99740.53
2023-01-08T20:05:03.043Z,99739.78
2023-01-08T20:10:10.690Z,99742.05
2023-01-08T20:15:17.953Z,99732.92
2023-01-08T20:20:23.502Z,99727.50
2023-01-08T20:25:29.128Z,99730.82
2023-01-08T20:30:34.651Z,99728.69
2023-01-08T20:35:40.226Z,99718.59
2023-01-08T20:40:47.000Z,99714.89
2023-01-08T20:45:52.740Z,99710.12
2023-01-08T20:51:00.775Z,99710.12
2023-01-08T20:56:09.250Z,99699.70
2023-01-08T21:01:17.968Z,99693.09
2023-01-08T21:06:26.446Z,99673.54
2023-01-08T21:11:32.389Z,99674.31
2023-01-08T21:16:40.739Z,99674.81
2023-01-08T21:21:46.603Z,99665.28
2023-01-08T21:26:52.050Z,99652.55
2023-01-08T21:31:57.734Z,99649.93
2023-01-08T21:37:04.369Z,99634.90
2023-01-08T21:42:30.423Z,99640.55
2023-01-08T21:47:36.155Z,99635.96
2023-01-08T21:52:59.517Z,99628.97
2023-01-08T21:58:05.445Z,99629.14
2023-01-08T22:03:10.902Z,99633.62
2023-01-08T22:08:18.062Z,99630.58
2023-01-08T22:13:23.668Z,99627.97
2023-01-08T22:18:29.221Z,99622.16
2023-01-08T22:23:35.538Z,99622.39
2023-01-08T22:28:42.376Z,99628.81
2023-01-08T22:33:47.839Z,99613.98
2023-01-08T22:38:53.446Z,99620.95
2023-01-08T22:43:58.899Z,99624.13
2023-01-08T22:49:05.133Z,99625.28
2023-01-08T22:54:13.261Z,99609.22
2023-01-08T22:59:20.178Z,99596.81
2023-01-08T23:04:25.720Z,99589.56
2023-01-08T23:09:31.111Z,99590.98
2023-01-08T23:14:36.507Z,99586.91
2023-01-08T23:19:42.236Z,99571.99
2023-01-08T23:24:48.002Z,99561.92
2023-01-08T23:29:53.617Z,99552.94
2023-01-08T23:34:59.220Z,99547.42
2023-01-08T23:40:04.858Z,99532.61
2023-01-08T23:45:11.424Z,99533.94
2023-01-08T23:50:17.560Z,99544.34
2023-01-08T23:55:23.438Z,99524.03
